createdAt,value
2022-09-28T00:03:08.948Z,11.73
2022-09-28T00:08:10.500Z,11.59
2022-09-28T00:13:12.010Z,11.53
2022-09-28T00:18:13.539Z,11.61
2022-09-28T00:23:15.154Z,11.63
2022-09-28T00:28:16.674Z,11.64
2022-09-28T00:33:19.219Z,11.49
2022-09-28T00:38:20.816Z,11.74
2022-09-28T00:43:23.796Z,11.77
2022-09-28T00:48:28.285Z,11.48
2022-09-28T00:53:32.039Z,11.35
2022-09-28T00:58:36.477Z,11.42
2022-09-28T01:03:38.750Z,11.35
2022-09-28T01:08:40.554Z,11.36
2022-09-28T01:13:42.243Z,11.29
2022-09-28T01:19:02.528Z,11.19
2022-09-28T01:24:45.451Z,11.11
2022-09-28T01:29:55.909Z,10.76
2022-09-28T01:35:06.870Z,11.12
2022-09-28T01:40:09.555Z,11.11
2022-09-28T01:45:17.070Z,11.19
2022-09-28T01:50:21.642Z,10.95
2022-09-28T01:55:33.938Z,11.13
2022-09-28T02:00:41.731Z,11.27
2022-09-28T02:05:52.701Z,11.19
2022-09-28T02:11:08.082Z,11.15
2022-09-28T02:16:22.034Z,11.10
2022-09-28T02:21:44.558Z,11.38
2022-09-28T02:26:50.150Z,11.43
2022-09-28T02:31:51.872Z,11.29
2022-09-28T02:36:54.239Z,11.12
2022-09-28T02:42:13.018Z,11.33
2022-09-28T02:47:14.585Z,11.34
2022-09-28T02:52:24.912Z,11.42
2022-09-28T02:57:59.643Z,11.15
2022-09-28T03:03:38.327Z,11.11
2022-09-28T03:09:03.764Z,11.27
2022-09-28T03:14:09.316Z,11.19
2022-09-28T03:19:29.338Z,11.31
2022-09-28T03:24:31.031Z,11.11
2022-09-28T03:29:33.102Z,11.15
2022-09-28T03:34:38.601Z,10.70
2022-09-28T03:39:40.631Z,10.95
2022-09-28T03:44:42.251Z,10.98
2022-09-28T03:49:44.208Z,10.92
2022-09-28T03:54:49.043Z,11.34
2022-09-28T03:59:51.131Z,11.27
2022-09-28T04:04:52.741Z,11.21
2022-09-28T04:09:54.867Z,11.31
2022-09-28T04:14:56.553Z,11.15
2022-09-28T04:19:58.109Z,11.42
2022-09-28T04:25:14.792Z,11.52
2022-09-28T04:30:16.925Z,11.52
2022-09-28T04:35:20.154Z,11.47
2022-09-28T04:40:22.322Z,11.35
2022-09-28T04:45:27.001Z,11.46
2022-09-28T04:50:32.428Z,11.13
2022-09-28T04:56:00.313Z,11.30
2022-09-28T05:01:06.816Z,11.36
2022-09-28T05:06:30.582Z,11.25
2022-09-28T05:11:37.372Z,11.24
2022-09-28T05:16:44.593Z,10.95
2022-09-28T05:22:11.516Z,10.76
2022-09-28T05:27:16.746Z,11.08
2022-09-28T05:32:21.774Z,11.13
2022-09-28T05:37:41.190Z,11.06
2022-09-28T05:42:43.238Z,11.20
2022-09-28T05:47:48.245Z,11.23
2022-09-28T05:53:08.388Z,11.30
2022-09-28T05:58:11.617Z,11.41
2022-09-28T06:03:14.296Z,11.25
2022-09-28T06:08:16.029Z,11.46
2022-09-28T06:13:21.727Z,11.20
2022-09-28T06:18:24.043Z,11.41
2022-09-28T06:23:57.701Z,11.41
2022-09-28T06:29:03.393Z,11.06
2022-09-28T06:34:05.084Z,11.42
2022-09-28T06:39:07.443Z,11.50
2022-09-28T06:44:10.756Z,11.51
2022-09-28T06:49:38.680Z,11.57
2022-09-28T06:55:09.217Z,11.78
2022-09-28T07:00:17.019Z,11.73
2022-09-28T07:05:24.111Z,11.74
2022-09-28T07:10:46.058Z,11.82
2022-09-28T07:15:59.612Z,11.58
2022-09-28T07:21:04.236Z,11.74
2022-09-28T07:26:08.587Z,11.65
2022-09-28T07:31:33.695Z,11.64
2022-09-28T07:37:02.230Z,11.74
2022-09-28T07:42:04.051Z,11.74
2022-09-28T07:47:07.041Z,11.78
2022-09-28T07:52:46.573Z,11.82
2022-09-28T07:58:11.126Z,11.85
2022-09-28T08:03:35.415Z,11.90
2022-09-28T08:08:37.072Z,11.69
2022-09-28T08:13:40.085Z,11.84
2022-09-28T08:19:01.976Z,11.90
2022-09-28T08:24:03.709Z,11.86
2022-09-28T08:29:06.425Z,11.58
2022-09-28T08:34:31.096Z,11.69
2022-09-28T08:39:50.918Z,11.58
2022-09-28T08:45:08.406Z,11.59
2022-09-28T08:50:28.714Z,11.86
2022-09-28T08:55:50.406Z,11.84
2022-09-28T09:00:53.090Z,11.71
2022-09-28T09:06:04.500Z,11.88
2022-09-28T09:11:44.329Z,11.64
2022-09-28T09:17:00.920Z,11.81
2022-09-28T09:22:54.916Z,12.02
2022-09-28T09:28:24.087Z,12.04
2022-09-28T09:33:59.012Z,12.08
2022-09-28T09:39:51.281Z,11.95
2022-09-28T09:45:14.641Z,11.76
2022-09-28T09:50:25.191Z,11.74
2022-09-28T09:55:43.383Z,11.78
2022-09-28T10:01:08.646Z,11.80
2022-09-28T10:06:43.627Z,11.41
2022-09-28T10:11:52.057Z,11.50
2022-09-28T10:16:57.142Z,11.57
2022-09-28T10:22:21.094Z,11.48
2022-09-28T10:27:35.193Z,11.03
2022-09-28T10:32:44.985Z,11.26
2022-09-28T10:38:07.729Z,11.60
2022-09-28T10:43:34.548Z,11.60
2022-09-28T10:48:58.885Z,11.05
2022-09-28T10:54:04.382Z,11.07
2022-09-28T10:59:29.616Z,11.47
2022-09-28T11:04:56.288Z,11.54
2022-09-28T11:09:59.581Z,11.36
2022-09-28T11:15:04.531Z,11.54
2022-09-28T11:20:27.983Z,11.22
2022-09-28T11:25:32.703Z,11.67
2022-09-28T11:30:40.794Z,11.83
2022-09-28T11:36:14.740Z,12.09
2022-09-28T11:41:44.173Z,12.07
2022-09-28T11:47:03.914Z,12.24
2022-09-28T11:52:16.636Z,12.17
2022-09-28T11:57:22.337Z,11.99
2022-09-28T12:02:32.903Z,12.19
2022-09-28T12:07:44.254Z,12.17
2022-09-28T12:13:20.179Z,12.44
2022-09-28T12:18:37.846Z,12.41
2022-09-28T12:23:41.596Z,12.48
2022-09-28T12:28:49.110Z,12.55
2022-09-28T12:33:51.697Z,12.56
2022-09-28T12:39:18.137Z,12.40
2022-09-28T12:44:59.499Z,12.51
2022-09-28T12:50:37.537Z,12.52
2022-09-28T12:55:58.057Z,12.64
2022-09-28T13:01:18.927Z,12.53
2022-09-28T13:06:26.178Z,12.29
2022-09-28T13:11:46.916Z,12.35
2022-09-28T13:17:01.374Z,12.46
2022-09-28T13:22:02.854Z,12.35
2022-09-28T13:27:10.339Z,12.48
2022-09-28T13:32:12.796Z,12.52
2022-09-28T13:37:18.873Z,12.19
2022-09-28T13:42:47.556Z,12.37
2022-09-28T13:48:01.735Z,12.26
2022-09-28T13:53:21.631Z,12.12
2022-09-28T13:58:36.701Z,12.02
2022-09-28T14:03:44.747Z,12.17
2022-09-28T14:08:52.101Z,12.02
2022-09-28T14:14:08.673Z,12.00
2022-09-28T14:19:18.193Z,12.16
2022-09-28T14:24:38.877Z,12.09
2022-09-28T14:29:40.592Z,11.99
2022-09-28T14:34:44.267Z,12.02
2022-09-28T14:40:05.274Z,12.20
2022-09-28T14:45:07.274Z,12.11
2022-09-28T14:50:21.174Z,12.16
2022-09-28T14:55:51.879Z,11.97
2022-09-28T15:01:17.214Z,12.02
2022-09-28T15:06:21.422Z,11.88
2022-09-28T15:11:25.280Z,11.98
2022-09-28T15:16:30.563Z,11.97
2022-09-28T15:21:40.194Z,11.74
2022-09-28T15:26:48.087Z,11.83
2022-09-28T15:31:54.137Z,12.00
2022-09-28T15:36:56.417Z,11.85
2022-09-28T15:41:59.485Z,11.85
2022-09-28T15:47:10.958Z,11.90
2022-09-28T15:52:27.594Z,11.76
2022-09-28T15:57:36.933Z,11.93
2022-09-28T16:02:38.611Z,11.86
2022-09-28T16:07:41.564Z,11.64
2022-09-28T16:12:56.441Z,11.75
2022-09-28T16:18:02.887Z,11.73
2022-09-28T16:23:16.860Z,11.72
2022-09-28T16:28:55.290Z,11.55
2022-09-28T16:34:11.526Z,11.53
2022-09-28T16:39:14.597Z,11.80
2022-09-28T16:44:23.558Z,11.75
2022-09-28T16:49:25.611Z,11.65
2022-09-28T16:54:47.466Z,11.61
2022-09-28T16:59:48.987Z,11.57
2022-09-28T17:04:51.274Z,11.59
2022-09-28T17:09:52.839Z,11.57
2022-09-28T17:14:54.843Z,11.30
2022-09-28T17:19:56.386Z,11.38
2022-09-28T17:24:57.897Z,11.50
2022-09-28T17:29:59.433Z,11.37
2022-09-28T17:35:23.203Z,11.37
2022-09-28T17:40:28.372Z,11.41
2022-09-28T17:45:31.345Z,11.24
2022-09-28T17:50:34.898Z,11.28
2022-09-28T17:55:37.996Z,11.30
2022-09-28T18:00:40.240Z,11.24
2022-09-28T18:05:43.327Z,11.40
2022-09-28T18:10:46.970Z,11.18
2022-09-28T18:15:51.467Z,11.19
2022-09-28T18:20:53.283Z,11.23
2022-09-28T18:25:54.791Z,10.86
2022-09-28T18:30:56.692Z,10.68
2022-09-28T18:35:58.260Z,10.77
2022-09-28T18:41:10.193Z,10.68
2022-09-28T18:46:11.853Z,10.85
2022-09-28T18:51:13.754Z,11.02
2022-09-28T18:56:20.899Z,11.04
2022-09-28T19:01:31.039Z,11.19
2022-09-28T19:06:34.390Z,11.08
2022-09-28T19:11:36.380Z,11.05
2022-09-28T19:16:37.911Z,10.78
2022-09-28T19:21:40.627Z,10.62
2022-09-28T19:26:42.520Z,10.70
2022-09-28T19:31:44.076Z,10.67
2022-09-28T19:36:45.605Z,10.58
2022-09-28T19:41:51.353Z,10.45
2022-09-28T19:46:58.495Z,10.59
2022-09-28T19:52:16.177Z,10.57
2022-09-28T19:57:19.530Z,10.22
2022-09-28T20:02:21.430Z,10.02
2022-09-28T20:07:23.003Z,10.20
2022-09-28T20:12:24.714Z,10.15
2022-09-28T20:17:27.476Z,10.31
2022-09-28T20:22:29.397Z,10.43
2022-09-28T20:27:30.924Z,10.45
2022-09-28T20:32:33.320Z,9.74
2022-09-28T20:37:34.821Z,10.11
2022-09-28T20:42:37.704Z,10.24
2022-09-28T20:47:40.505Z,10.31
2022-09-28T20:52:42.074Z,10.47
2022-09-28T20:57:43.913Z,10.36
2022-09-28T21:02:45.504Z,10.40
2022-09-28T21:07:47.059Z,10.09
2022-09-28T21:12:53.058Z,10.06
2022-09-28T21:17:54.556Z,10.26
2022-09-28T21:22:56.128Z,9.94
2022-09-28T21:27:57.626Z,10.01
2022-09-28T21:33:01.428Z,9.98
2022-09-28T21:38:03.586Z,10.08
2022-09-28T21:43:05.227Z,10.13
2022-09-28T21:48:06.969Z,10.15
2022-09-28T21:53:08.476Z,9.94
2022-09-28T21:58:10.099Z,9.72
2022-09-28T22:03:11.762Z,9.99
2022-09-28T22:08:13.349Z,9.83
2022-09-28T22:13:14.981Z,9.21
2022-09-28T22:18:16.566Z,9.28
2022-09-28T22:23:18.094Z,9.49
2022-09-28T22:28:19.609Z,9.46
2022-09-28T22:33:21.218Z,9.88
2022-09-28T22:38:24.306Z,9.80
2022-09-28T22:43:26.717Z,9.64
2022-09-28T22:48:28.396Z,9.72
2022-09-28T22:53:30.125Z,9.60
2022-09-28T22:58:32.782Z,9.50
2022-09-28T23:03:34.837Z,9.62
2022-09-28T23:08:36.593Z,9.50
2022-09-28T23:13:38.364Z,9.53
2022-09-28T23:18:42.773Z,9.66
2022-09-28T23:23:45.610Z,9.37
2022-09-28T23:28:47.322Z,9.46
2022-09-28T23:33:48.918Z,9.35
2022-09-28T23:38:50.450Z,9.37
2022-09-28T23:43:52.080Z,9.38
2022-09-28T23:48:53.770Z,9.44
2022-09-28T23:53:55.348Z,8.90
2022-09-28T23:58:57.011Z,8.84
